Decoded Metar for PAFS (NIKOLAI in AK, USA) (IATA:NIB) | Meteo·Mobile Aviation Weather
aviador You're here:

PAFS Decoded Metar

NIKOLAI in AK, USA
Report Time2019-05-19 18:01:00
UTC Time2019-05-19 18:19:50
Flight Rules vfr VFR
Wind080° at 06 kt
W.Decomp.*RWY 04: 5.6 kt HW 2.2 kt RCW
Visibility9999 m
Phenomena:N/A
Clouds:N/A
Expected CloudBase > 2,800 ft AGL from Temp-Dew spread
CeilingNone
Temp12°C (ISA -2)
Dew Point05°C (63% RH)
AAT8.7°C
QNH1007 hPa
Density Alt479 ft
Elevation413 ft
Report Wrong Elevation
Raw Report
PAFS 191801Z AUTO 08006KT 10SM CLR 12/05 A2974=

Extra information for PAFS:More info

Metar Taf Metar & Taf Last 4 Metars F.Rules Stats Wind Profile Meteogram Temp Stats Airport Information Weather charts Add Link Nearby VenuesMetar ALERT Operation Metar Decoded Social comments

AIRNAV info for PAFS